Time,TemperatureF,DewpointF,PressureIn,WindDirection,WindDirectionDegrees,WindSpeedMPH,WindSpeedGustMPH,Humidity,HourlyPrecipIn,Conditions,Clouds,dailyrainin,SoftwareType,DateUTC
2013-04-16 00:00:00,64.4,62.0,30.22,NNW,344,0.0,0.0,92,0.00,CLR,,0.26,WeatherDisplay:10.37,2013-04-16 04:00:00,
2013-04-16 00:01:00,64.3,61.9,30.22,NNW,344,0.0,0.0,92,0.00,RA,,0.00,WeatherDisplay:10.37,2013-04-16 04:01:00,
2013-04-16 00:06:00,64.6,62.5,30.22,NNW,344,0.0,0.0,93,0.00,RA,,0.00,WeatherDisplay:10.37,2013-04-16 04:06:00,
2013-04-16 00:11:00,64.8,61.8,30.22,NNW,344,0.0,0.0,90,0.00,CLR,,0.00,WeatherDisplay:10.37,2013-04-16 04:11:00,
2013-04-16 00:16:00,64.4,62.0,30.22,NNW,344,0.0,0.0,92,0.00,CLR,,0.00,WeatherDisplay:10.37,2013-04-16 04:16:00,
2013-04-16 00:21:00,64.1,61.7,30.22,NNW,344,0.0,0.0,92,0.00,CLR,,0.00,WeatherDisplay:10.37,2013-04-16 04:21:00,
2013-04-16 00:26:00,64.6,62.2,30.22,NNW,344,0.0,0.0,92,0.00,CLR,,0.00,WeatherDisplay:10.37,2013-04-16 04:26:00,
2013-04-16 00:31:00,64.9,62.5,30.23,NNW,344,0.0,0.0,92,0.00,CLR,,0.00,WeatherDisplay:10.37,2013-04-16 04:31:00,
2013-04-16 00:36:00,65.0,62.9,30.23,NNW,344,0.0,0.0,93,0.00,CLR,,0.00,WeatherDisplay:10.37,2013-04-16 04:36:00,
2013-04-16 00:41:00,65.2,63.1,30.23,NNW,344,0.0,0.0,93,0.00,CLR,,0.00,WeatherDisplay:10.37,2013-04-16 04:41:00,
2013-04-16 00:46:00,65.1,62.1,30.23,NNW,344,0.0,0.0,90,0.00,CLR,,0.00,WeatherDisplay:10.37,2013-04-16 04:46:00,
2013-04-16 00:51:00,65.6,61.6,30.23,NNW,344,0.0,0.0,87,0.00,CLR,,0.00,WeatherDisplay:10.37,2013-04-16 04:51:00,
2013-04-16 00:56:00,65.1,61.5,30.23,NNW,344,0.0,0.0,88,0.00,CLR,,0.00,WeatherDisplay:10.37,2013-04-16 04:56:00,
2013-04-16 01:01:00,64.6,61.9,30.23,NNW,344,0.0,0.0,91,0.00,CLR,,0.00,WeatherDisplay:10.37,2013-04-16 05:01:00,
2013-04-16 01:06:00,64.1,61.7,30.23,NNW,344,0.0,0.0,92,0.00,CLR,,0.00,WeatherDisplay:10.37,2013-04-16 05:06:00,
2013-04-16 01:11:00,63.8,61.7,30.23,WNW,282,0.0,0.0,93,0.00,CLR,,0.00,WeatherDisplay:10.37,2013-04-16 05:11:00,
2013-04-16 01:16:00,63.8,62.0,30.23,WNW,282,0.0,0.0,94,0.00,CLR,,0.00,WeatherDisplay:10.37,2013-04-16 05:16:00,
2013-04-16 01:21:00,64.4,61.4,30.22,WNW,282,0.0,0.0,90,0.00,CLR,,0.00,WeatherDisplay:10.37,2013-04-16 05:21:00,
2013-04-16 01:26:00,64.2,61.5,30.22,WNW,282,0.0,0.0,91,0.00,CLR,,0.00,WeatherDisplay:10.37,2013-04-16 05:26:00,
2013-04-16 01:31:00,63.8,61.7,30.23,WNW,282,0.0,0.0,93,0.00,CLR,,0.00,WeatherDisplay:10.37,2013-04-16 05:31:00,
2013-04-16 01:37:00,63.6,61.8,30.23,WNW,282,0.0,0.0,94,0.00,CLR,,0.00,WeatherDisplay:10.37,2013-04-16 05:37:00,
2013-04-16 01:42:00,63.5,62.0,30.23,WNW,282,0.0,0.0,95,0.00,CLR,,0.00,WeatherDisplay:10.37,2013-04-16 05:42:00,
2013-04-16 01:47:00,64.0,61.6,30.23,WNW,282,0.0,0.0,92,0.00,CLR,,0.00,WeatherDisplay:10.37,2013-04-16 05:47:00,
2013-04-16 01:52:00,63.9,61.8,30.23,WNW,282,0.0,0.0,93,0.00,CLR,,0.00,WeatherDisplay:10.37,2013-04-16 05:52:00,
2013-04-16 01:57:00,64.2,63.6,30.23,WNW,282,0.0,0.0,98,0.00,CLR,,0.00,WeatherDisplay:10.37,2013-04-16 05:57:00,
2013-04-16 02:02:00,64.9,64.0,30.23,WNW,282,0.0,0.0,97,0.00,CLR,,0.00,WeatherDisplay:10.37,2013-04-16 06:02:00,
2013-04-16 02:07:00,65.0,62.9,30.23,WNW,282,0.0,0.0,93,0.00,CLR,,0.00,WeatherDisplay:10.37,2013-04-16 06:07:00,
2013-04-16 02:12:00,64.6,62.2,30.23,WNW,282,0.0,0.0,92,0.00,CLR,,0.00,WeatherDisplay:10.37,2013-04-16 06:12:00,
2013-04-16 02:17:00,64.0,61.9,30.23,WNW,282,0.0,0.0,93,0.00,CLR,,0.00,WeatherDisplay:10.37,2013-04-16 06:17:00,
2013-04-16 02:22:00,63.7,62.2,30.23,WNW,282,0.0,0.0,95,0.00,CLR,,0.00,WeatherDisplay:10.37,2013-04-16 06:22:00,
2013-04-16 02:27:00,64.4,61.7,30.23,WNW,282,0.0,0.0,91,0.00,CLR,,0.00,WeatherDisplay:10.37,2013-04-16 06:27:00,
2013-04-16 02:32:00,64.2,61.8,30.23,WNW,282,0.0,0.0,92,0.00,CLR,,0.00,WeatherDisplay:10.37,2013-04-16 06:32:00,
2013-04-16 02:37:00,63.7,61.3,30.23,WNW,282,0.0,0.0,92,0.00,CLR,,0.00,WeatherDisplay:10.37,2013-04-16 06:37:00,
2013-04-16 02:42:00,63.4,61.6,30.23,WNW,282,0.0,0.0,94,0.00,CLR,,0.00,WeatherDisplay:10.37,2013-04-16 06:42:00,
2013-04-16 02:47:00,63.2,61.7,30.23,WNW,282,0.0,0.0,95,0.00,CLR,,0.00,WeatherDisplay:10.37,2013-04-16 06:47:00,
2013-04-16 02:52:00,63.1,61.9,30.23,WNW,282,0.0,0.0,96,0.00,CLR,,0.00,WeatherDisplay:10.37,2013-04-16 06:52:00,
2013-04-16 02:57:00,62.9,61.7,30.23,WNW,282,0.0,0.0,96,0.00,CLR,,0.00,WeatherDisplay:10.37,2013-04-16 06:57:00,
2013-04-16 03:02:00,62.8,61.6,30.23,WNW,282,0.0,0.0,96,0.00,CLR,,0.00,WeatherDisplay:10.37,2013-04-16 07:02:00,
2013-04-16 03:07:00,62.7,61.8,30.22,WNW,282,0.0,0.0,97,0.00,CLR,,0.00,WeatherDisplay:10.37,2013-04-16 07:07:00,
2013-04-16 03:12:00,62.6,61.7,30.22,WNW,282,0.0,0.0,97,0.00,CLR,,0.00,WeatherDisplay:10.37,2013-04-16 07:12:00,
2013-04-16 03:17:00,62.9,62.9,30.22,WNW,282,0.0,0.0,100,0.00,CLR,,0.00,WeatherDisplay:10.37,2013-04-16 07:17:00,
2013-04-16 03:22:00,64.0,64.0,30.22,WNW,282,0.0,0.0,100,0.00,CLR,,0.00,WeatherDisplay:10.37,2013-04-16 07:22:00,
2013-04-16 03:27:00,64.3,63.4,30.22,WNW,282,0.0,0.0,97,0.00,CLR,,0.00,WeatherDisplay:10.37,2013-04-16 07:27:00,
2013-04-16 03:32:00,64.1,62.9,30.22,WNW,282,0.0,0.0,96,0.00,CLR,,0.00,WeatherDisplay:10.37,2013-04-16 07:32:00,
2013-04-16 03:37:00,63.7,62.5,30.22,WNW,282,0.0,0.0,96,0.00,CLR,,0.00,WeatherDisplay:10.37,2013-04-16 07:37:00,
2013-04-16 03:42:00,63.2,62.0,30.22,WNW,282,0.0,0.0,96,0.00,CLR,,0.00,WeatherDisplay:10.37,2013-04-16 07:42:00,
2013-04-16 03:47:00,62.9,61.7,30.22,WNW,282,0.0,0.0,96,0.00,CLR,,0.00,WeatherDisplay:10.37,2013-04-16 07:47:00,
2013-04-16 03:52:00,62.6,61.7,30.23,WNW,282,0.0,0.0,97,0.00,CLR,,0.00,WeatherDisplay:10.37,2013-04-16 07:52:00,
2013-04-16 03:57:00,62.6,61.7,30.23,WNW,282,0.0,0.0,97,0.00,CLR,,0.00,WeatherDisplay:10.37,2013-04-16 07:57:00,
2013-04-16 04:02:00,62.6,61.7,30.23,WNW,282,0.0,0.0,97,0.00,CLR,,0.00,WeatherDisplay:10.37,2013-04-16 08:02:00,
2013-04-16 04:07:00,62.5,61.6,30.22,WNW,282,0.0,0.0,97,0.00,CLR,,0.00,WeatherDisplay:10.37,2013-04-16 08:07:00,
2013-04-16 04:12:00,62.3,61.7,30.22,WNW,282,0.0,0.0,98,0.00,CLR,,0.00,WeatherDisplay:10.37,2013-04-16 08:12:00,
2013-04-16 04:17:00,62.3,61.7,30.22,WNW,282,0.0,0.0,98,0.00,CLR,,0.00,WeatherDisplay:10.37,2013-04-16 08:17:00,
2013-04-16 04:22:00,62.1,61.5,30.22,WNW,282,0.0,0.0,98,0.00,CLR,,0.00,WeatherDisplay:10.37,2013-04-16 08:22:00,
2013-04-16 04:27:00,62.0,61.4,30.22,WNW,282,0.0,0.0,98,0.00,CLR,,0.00,WeatherDisplay:10.37,2013-04-16 08:27:00,
2013-04-16 04:32:00,61.9,61.6,30.22,WNW,282,0.0,0.0,99,0.00,CLR,,0.00,WeatherDisplay:10.37,2013-04-16 08:32:00,
2013-04-16 04:37:00,62.5,62.5,30.22,WNW,282,0.0,0.0,100,0.00,CLR,,0.00,WeatherDisplay:10.37,2013-04-16 08:37:00,
2013-04-16 04:42:00,63.5,63.5,30.22,WNW,282,0.0,0.0,100,0.00,CLR,,0.00,WeatherDisplay:10.37,2013-04-16 08:42:00,
2013-04-16 04:47:00,63.6,63.0,30.22,WNW,282,0.0,0.0,98,0.00,CLR,,0.00,WeatherDisplay:10.37,2013-04-16 08:47:00,
2013-04-16 04:52:00,63.2,62.3,30.22,WNW,282,0.0,0.0,97,0.00,CLR,,0.00,WeatherDisplay:10.37,2013-04-16 08:52:00,
2013-04-16 04:57:00,62.9,62.0,30.23,WNW,282,0.0,0.0,97,0.00,CLR,,0.00,WeatherDisplay:10.37,2013-04-16 08:57:00,
2013-04-16 05:02:00,62.6,61.7,30.23,WNW,282,0.0,0.0,97,0.00,CLR,,0.00,WeatherDisplay:10.37,2013-04-16 09:02:00,
2013-04-16 05:07:00,62.4,61.8,30.23,WNW,282,0.0,0.0,98,0.00,CLR,,0.00,WeatherDisplay:10.37,2013-04-16 09:07:00,
2013-04-16 05:12:00,62.2,61.6,30.22,WNW,282,0.0,0.0,98,0.00,CLR,,0.00,WeatherDisplay:10.37,2013-04-16 09:12:00,
2013-04-16 05:18:00,62.1,61.8,30.22,WNW,282,0.0,0.0,99,0.00,CLR,,0.00,WeatherDisplay:10.37,2013-04-16 09:18:00,
2013-04-16 05:23:00,62.0,61.7,30.23,WNW,282,0.0,0.0,99,0.00,CLR,,0.00,WeatherDisplay:10.37,2013-04-16 09:23:00,
2013-04-16 05:28:00,62.0,61.7,30.23,WNW,282,0.0,0.0,99,0.00,CLR,,0.00,WeatherDisplay:10.37,2013-04-16 09:28:00,
2013-04-16 05:33:00,61.8,61.5,30.22,WNW,282,0.0,0.0,99,0.00,CLR,,0.00,WeatherDisplay:10.37,2013-04-16 09:33:00,
2013-04-16 05:38:00,61.7,61.4,30.22,WNW,282,0.0,0.0,99,0.00,CLR,,0.00,WeatherDisplay:10.37,2013-04-16 09:38:00,
2013-04-16 05:43:00,61.7,61.4,30.22,WNW,282,0.0,0.0,99,0.00,CLR,,0.00,WeatherDisplay:10.37,2013-04-16 09:43:00,
2013-04-16 05:48:00,61.7,61.7,30.22,WNW,282,0.0,0.0,100,0.00,CLR,,0.00,WeatherDisplay:10.37,2013-04-16 09:48:00,
2013-04-16 05:53:00,62.7,62.7,30.22,WNW,282,0.0,0.0,100,0.00,CLR,,0.00,WeatherDisplay:10.37,2013-04-16 09:53:00,
2013-04-16 05:58:00,63.6,63.6,30.22,WNW,282,0.0,0.0,100,0.00,CLR,,0.00,WeatherDisplay:10.37,2013-04-16 09:58:00,
2013-04-16 06:03:00,63.4,63.1,30.22,WNW,282,0.0,0.0,99,0.00,CLR,,0.00,WeatherDisplay:10.37,2013-04-16 10:03:00,
2013-04-16 06:08:00,63.0,62.4,30.22,WNW,282,0.0,0.0,98,0.00,CLR,,0.00,WeatherDisplay:10.37,2013-04-16 10:08:00,
2013-04-16 06:13:00,62.4,61.8,30.22,WNW,282,0.0,0.0,98,0.00,CLR,,0.00,WeatherDisplay:10.37,2013-04-16 10:13:00,
2013-04-16 06:18:00,62.1,61.8,30.22,WNW,282,0.0,0.0,99,0.00,CLR,,0.00,WeatherDisplay:10.37,2013-04-16 10:18:00,
2013-04-16 06:23:00,61.9,61.6,30.22,WNW,282,0.0,0.0,99,0.00,CLR,,0.00,WeatherDisplay:10.37,2013-04-16 10:23:00,
2013-04-16 06:28:00,61.9,61.3,30.22,WNW,282,0.0,0.0,98,0.00,CLR,,0.00,WeatherDisplay:10.37,2013-04-16 10:28:00,
2013-04-16 06:33:00,61.8,61.2,30.22,WNW,282,0.0,0.0,98,0.00,CLR,,0.00,WeatherDisplay:10.37,2013-04-16 10:33:00,
2013-04-16 06:38:00,61.7,61.1,30.23,WNW,282,0.0,0.0,98,0.00,CLR,,0.00,WeatherDisplay:10.37,2013-04-16 10:38:00,
2013-04-16 06:43:00,61.7,61.1,30.23,WNW,282,0.0,0.0,98,0.00,CLR,,0.00,WeatherDisplay:10.37,2013-04-16 10:43:00,
2013-04-16 06:48:00,61.7,61.1,30.23,WNW,282,0.0,0.0,98,0.00,CLR,,0.00,WeatherDisplay:10.37,2013-04-16 10:48:00,
2013-04-16 06:53:00,61.9,61.3,30.24,WNW,282,0.0,0.0,98,0.00,CLR,,0.00,WeatherDisplay:10.37,2013-04-16 10:53:00,
2013-04-16 06:58:00,61.8,61.2,30.24,WNW,282,0.0,0.0,98,0.00,CLR,,0.00,WeatherDisplay:10.37,2013-04-16 10:58:00,
2013-04-16 07:03:00,61.8,61.5,30.24,WNW,282,0.0,0.0,99,0.00,CLR,,0.00,WeatherDisplay:10.37,2013-04-16 11:03:00,
2013-04-16 07:08:00,62.3,62.3,30.24,WNW,282,0.0,0.0,100,0.00,CLR,,0.00,WeatherDisplay:10.37,2013-04-16 11:08:00,
2013-04-16 07:13:00,62.9,62.9,30.25,WNW,282,0.0,0.0,100,0.00,CLR,,0.00,WeatherDisplay:10.37,2013-04-16 11:13:00,
2013-04-16 07:18:00,63.4,62.8,30.25,WNW,282,0.0,0.0,98,0.00,CLR,,0.00,WeatherDisplay:10.37,2013-04-16 11:18:00,
2013-04-16 07:23:00,63.4,62.5,30.25,WNW,282,0.0,0.0,97,0.00,CLR,,0.00,WeatherDisplay:10.37,2013-04-16 11:23:00,
2013-04-16 07:28:00,63.0,62.1,30.26,WNW,282,0.0,0.0,97,0.00,CLR,,0.00,WeatherDisplay:10.37,2013-04-16 11:28:00,
2013-04-16 07:33:00,62.6,62.0,30.26,WNW,282,0.0,0.0,98,0.00,CLR,,0.00,WeatherDisplay:10.37,2013-04-16 11:33:00,
2013-04-16 07:38:00,62.5,61.9,30.26,WNW,282,0.0,0.0,98,0.00,CLR,,0.00,WeatherDisplay:10.37,2013-04-16 11:38:00,
2013-04-16 07:43:00,62.3,61.7,30.26,WNW,282,0.0,0.0,98,0.00,CLR,,0.00,WeatherDisplay:10.37,2013-04-16 11:43:00,
2013-04-16 07:48:00,62.4,61.8,30.26,WNW,282,0.0,0.0,98,0.00,CLR,,0.00,WeatherDisplay:10.37,2013-04-16 11:48:00,
2013-04-16 07:53:00,62.3,61.7,30.26,WNW,282,0.0,0.0,98,0.00,CLR,,0.00,WeatherDisplay:10.37,2013-04-16 11:53:00,
2013-04-16 07:58:00,62.3,62.0,30.26,WNW,282,0.0,0.0,99,0.00,CLR,,0.00,WeatherDisplay:10.37,2013-04-16 11:58:00,
2013-04-16 08:03:00,63.0,63.0,30.27,WNW,282,0.0,0.0,100,0.00,CLR,,0.00,WeatherDisplay:10.37,2013-04-16 12:03:00,
2013-04-16 08:08:00,63.8,63.8,30.27,WNW,282,0.0,0.0,100,0.00,CLR,,0.00,WeatherDisplay:10.37,2013-04-16 12:08:00,
2013-04-16 08:13:00,64.2,63.9,30.27,WNW,282,0.0,0.0,99,0.00,CLR,,0.00,WeatherDisplay:10.37,2013-04-16 12:13:00,
2013-04-16 08:18:00,65.1,65.1,30.27,WNW,282,0.0,0.0,100,0.00,CLR,,0.00,WeatherDisplay:10.37,2013-04-16 12:18:00,
2013-04-16 08:23:00,65.9,65.9,30.28,WNW,282,0.0,0.0,100,0.00,CLR,,0.00,WeatherDisplay:10.37,2013-04-16 12:23:00,
2013-04-16 08:28:00,66.3,65.7,30.28,WNW,282,0.0,0.0,98,0.00,CLR,,0.00,WeatherDisplay:10.37,2013-04-16 12:28:00,
2013-04-16 08:33:00,66.9,65.7,30.28,WNW,282,0.0,0.0,96,0.00,CLR,,0.00,WeatherDisplay:10.37,2013-04-16 12:33:00,
2013-04-16 08:38:00,66.5,63.8,30.28,WNW,282,0.0,0.0,91,0.00,CLR,,0.00,WeatherDisplay:10.37,2013-04-16 12:38:00,
2013-04-16 08:43:00,65.8,63.1,30.28,WNW,282,0.0,0.0,91,0.00,CLR,,0.00,WeatherDisplay:10.37,2013-04-16 12:43:00,
2013-04-16 08:48:00,65.1,62.7,30.28,WNW,282,0.0,0.0,92,0.00,CLR,,0.00,WeatherDisplay:10.37,2013-04-16 12:48:00,
2013-04-16 08:53:00,64.4,62.3,30.28,WNW,282,0.0,0.0,93,0.00,CLR,,0.00,WeatherDisplay:10.37,2013-04-16 12:53:00,
2013-04-16 08:58:00,64.1,62.3,30.28,WNW,282,0.0,0.0,94,0.00,CLR,,0.00,WeatherDisplay:10.37,2013-04-16 12:58:00,
2013-04-16 09:03:00,63.9,62.1,30.28,WNW,282,0.0,0.0,94,0.00,CLR,,0.00,WeatherDisplay:10.37,2013-04-16 13:03:00,
2013-04-16 09:08:00,64.2,63.3,30.28,WNW,282,0.0,0.0,97,0.00,CLR,,0.00,WeatherDisplay:10.37,2013-04-16 13:08:00,
2013-04-16 09:13:00,64.9,63.7,30.28,WNW,282,0.0,0.0,96,0.00,CLR,,0.00,WeatherDisplay:10.37,2013-04-16 13:13:00,
2013-04-16 09:18:00,65.1,63.3,30.28,WNW,282,0.0,0.0,94,0.00,CLR,,0.00,WeatherDisplay:10.37,2013-04-16 13:18:00,
2013-04-16 09:23:00,65.2,63.4,30.28,WNW,282,0.0,0.0,94,0.00,CLR,,0.00,WeatherDisplay:10.37,2013-04-16 13:23:00,
2013-04-16 09:28:00,65.4,63.6,30.28,WNW,282,0.0,0.0,94,0.00,CLR,,0.00,WeatherDisplay:10.37,2013-04-16 13:28:00,
2013-04-16 09:33:00,65.4,63.6,30.28,WNW,282,0.0,0.0,94,0.00,CLR,,0.00,WeatherDisplay:10.37,2013-04-16 13:33:00,
2013-04-16 09:38:00,65.8,64.0,30.28,WNW,282,0.0,0.0,94,0.00,CLR,,0.00,WeatherDisplay:10.37,2013-04-16 13:38:00,
2013-04-16 09:43:00,65.8,63.7,30.28,WNW,282,0.0,0.0,93,0.00,CLR,,0.00,WeatherDisplay:10.37,2013-04-16 13:43:00,
2013-04-16 09:48:00,65.8,64.0,30.28,WNW,282,0.0,0.0,94,0.00,CLR,,0.00,WeatherDisplay:10.37,2013-04-16 13:48:00,
2013-04-16 09:53:00,66.1,64.3,30.29,WNW,282,0.0,0.0,94,0.00,CLR,,0.00,WeatherDisplay:10.37,2013-04-16 13:53:00,
2013-04-16 09:58:00,66.2,64.4,30.29,WNW,282,0.0,0.0,94,0.00,CLR,,0.00,WeatherDisplay:10.37,2013-04-16 13:58:00,
2013-04-16 10:03:00,66.6,64.8,30.29,WNW,282,0.0,0.0,94,0.00,CLR,,0.00,WeatherDisplay:10.37,2013-04-16 14:03:00,
2013-04-16 10:08:00,66.6,64.8,30.29,WNW,282,0.0,0.0,94,0.00,CLR,,0.00,WeatherDisplay:10.37,2013-04-16 14:08:00,
2013-04-16 10:13:00,66.9,64.8,30.29,WNW,282,0.0,0.0,93,0.00,CLR,,0.00,WeatherDisplay:10.37,2013-04-16 14:13:00,
2013-04-16 10:18:00,67.3,66.4,30.29,WNW,282,0.0,0.0,97,0.00,CLR,,0.00,WeatherDisplay:10.37,2013-04-16 14:18:00,
2013-04-16 10:23:00,68.5,67.3,30.29,WNW,282,0.0,0.0,96,0.00,CLR,,0.00,WeatherDisplay:10.37,2013-04-16 14:23:00,
2013-04-16 10:28:00,69.5,66.1,30.29,WNW,282,0.0,0.0,89,0.00,CLR,,0.00,WeatherDisplay:10.37,2013-04-16 14:28:00,
2013-04-16 10:33:00,69.6,64.9,30.29,WNW,282,0.0,0.0,85,0.00,CLR,,0.00,WeatherDisplay:10.37,2013-04-16 14:33:00,
2013-04-16 10:39:00,69.4,64.4,30.29,WNW,282,0.0,0.0,84,0.00,CLR,,0.00,WeatherDisplay:10.37,2013-04-16 14:39:00,
2013-04-16 10:44:00,69.4,64.7,30.29,WNW,282,0.8,0.0,85,0.00,CLR,,0.00,WeatherDisplay:10.37,2013-04-16 14:44:00,
2013-04-16 10:49:00,69.5,64.8,30.29,West,270,0.0,0.0,85,0.00,CLR,,0.00,WeatherDisplay:10.37,2013-04-16 14:49:00,
2013-04-16 10:54:00,69.5,64.1,30.30,West,270,0.0,0.0,83,0.00,CLR,,0.00,WeatherDisplay:10.37,2013-04-16 14:54:00,
2013-04-16 10:59:00,69.4,64.0,30.30,West,270,0.0,0.0,83,0.00,CLR,,0.00,WeatherDisplay:10.37,2013-04-16 14:59:00,
2013-04-16 11:04:00,69.4,64.0,30.30,NNE,17,2.3,0.0,83,0.00,CLR,,0.00,WeatherDisplay:10.37,2013-04-16 15:04:00,
2013-04-16 11:09:00,69.5,64.1,30.30,NNE,17,0.0,0.0,83,0.00,CLR,,0.00,WeatherDisplay:10.37,2013-04-16 15:09:00,
2013-04-16 11:14:00,69.7,64.3,30.30,NNE,17,0.0,0.0,83,0.00,CLR,,0.00,WeatherDisplay:10.37,2013-04-16 15:14:00,
2013-04-16 11:19:00,70.4,65.7,30.30,NNE,17,0.0,0.0,85,0.00,CLR,,0.00,WeatherDisplay:10.37,2013-04-16 15:19:00,
2013-04-16 11:24:00,71.5,65.4,30.30,NNE,17,0.0,0.0,81,0.00,CLR,,0.00,WeatherDisplay:10.37,2013-04-16 15:24:00,
2013-04-16 11:29:00,71.9,65.4,30.30,NNE,17,0.0,0.0,80,0.00,CLR,,0.00,WeatherDisplay:10.37,2013-04-16 15:29:00,
2013-04-16 11:34:00,72.9,66.4,30.30,NNE,17,0.0,0.0,80,0.00,CLR,,0.00,WeatherDisplay:10.37,2013-04-16 15:34:00,
2013-04-16 11:39:00,73.6,65.9,30.30,NNE,17,0.0,0.0,77,0.00,CLR,,0.00,WeatherDisplay:10.37,2013-04-16 15:39:00,
2013-04-16 11:44:00,74.3,65.5,30.30,NNE,17,0.0,0.0,74,0.00,CLR,,0.00,WeatherDisplay:10.37,2013-04-16 15:44:00,
2013-04-16 11:49:00,74.7,65.1,30.30,SE,144,0.0,0.0,72,0.00,CLR,,0.00,WeatherDisplay:10.37,2013-04-16 15:49:00,
2013-04-16 11:54:00,75.0,63.3,30.30,ESE,102,0.0,0.0,67,0.00,CLR,,0.00,WeatherDisplay:10.37,2013-04-16 15:54:00,
2013-04-16 11:59:00,74.4,63.1,30.30,East,92,3.5,3.5,68,0.00,CLR,,0.00,WeatherDisplay:10.37,2013-04-16 15:59:00,
2013-04-16 12:04:00,73.6,61.5,30.30,NE,35,2.3,2.3,66,0.00,CLR,,0.00,WeatherDisplay:10.37,2013-04-16 16:04:00,
2013-04-16 12:09:00,73.7,61.6,30.29,NE,35,0.0,0.0,66,0.00,CLR,,0.00,WeatherDisplay:10.37,2013-04-16 16:09:00,
2013-04-16 12:14:00,74.2,61.7,30.29,ESE,103,0.0,0.0,65,0.00,CLR,,0.00,WeatherDisplay:10.37,2013-04-16 16:14:00,
2013-04-16 12:19:00,73.9,62.2,30.29,ESE,103,0.0,0.0,67,0.00,CLR,,0.00,WeatherDisplay:10.37,2013-04-16 16:19:00,
2013-04-16 12:24:00,73.7,62.5,30.29,ESE,112,2.3,2.3,68,0.00,CLR,,0.00,WeatherDisplay:10.37,2013-04-16 16:24:00,
2013-04-16 12:29:00,74.7,62.1,30.29,ESE,112,0.0,0.0,65,0.00,CLR,,0.00,WeatherDisplay:10.37,2013-04-16 16:29:00,
2013-04-16 12:34:00,75.7,61.8,30.29,ESE,112,0.0,0.0,62,0.00,CLR,,0.00,WeatherDisplay:10.37,2013-04-16 16:34:00,
2013-04-16 12:39:00,75.5,62.0,30.29,South,174,0.0,0.0,63,0.00,CLR,,0.00,WeatherDisplay:10.37,2013-04-16 16:39:00,
2013-04-16 12:44:00,75.3,61.8,30.29,South,174,0.0,0.0,63,0.00,CLR,,0.00,WeatherDisplay:10.37,2013-04-16 16:44:00,
2013-04-16 12:49:00,76.6,61.7,30.28,South,174,0.0,0.0,60,0.00,CLR,,0.00,WeatherDisplay:10.37,2013-04-16 16:49:00,
2013-04-16 12:54:00,77.7,61.3,30.28,ENE,59,2.3,2.3,57,0.00,CLR,,0.00,WeatherDisplay:10.37,2013-04-16 16:54:00,
2013-04-16 12:59:00,77.4,60.5,30.28,NE,37,0.0,0.0,56,0.00,CLR,,0.00,WeatherDisplay:10.37,2013-04-16 16:59:00,
2013-04-16 13:04:00,76.8,59.9,30.27,East,89,2.3,0.0,56,0.00,CLR,,0.00,WeatherDisplay:10.37,2013-04-16 17:04:00,
2013-04-16 13:09:00,77.0,61.1,30.27,East,89,0.0,0.0,58,0.00,CLR,,0.00,WeatherDisplay:10.37,2013-04-16 17:09:00,
2013-04-16 13:14:00,77.4,61.9,30.27,SSW,212,1.4,1.4,59,0.00,CLR,,0.00,WeatherDisplay:10.37,2013-04-16 17:14:00,
2013-04-16 13:19:00,77.4,61.5,30.27,East,96,0.0,0.0,58,0.00,CLR,,0.00,WeatherDisplay:10.37,2013-04-16 17:19:00,
2013-04-16 13:24:00,77.4,60.5,30.27,East,96,0.0,0.0,56,0.00,CLR,,0.00,WeatherDisplay:10.37,2013-04-16 17:24:00,
2013-04-16 13:29:00,78.2,60.7,30.27,East,96,0.0,0.0,55,0.00,CLR,,0.00,WeatherDisplay:10.37,2013-04-16 17:29:00,
2013-04-16 13:34:00,78.4,60.4,30.26,East,97,3.2,3.2,54,0.00,CLR,,0.00,WeatherDisplay:10.37,2013-04-16 17:34:00,
2013-04-16 13:39:00,78.9,60.3,30.26,East,86,0.0,0.0,53,0.00,CLR,,0.00,WeatherDisplay:10.37,2013-04-16 17:39:00,
2013-04-16 13:44:00,79.4,60.2,30.26,East,86,0.0,0.0,52,0.00,CLR,,0.00,WeatherDisplay:10.37,2013-04-16 17:44:00,
2013-04-16 13:49:00,80.1,58.6,30.26,East,86,0.0,0.0,48,0.00,CLR,,0.00,WeatherDisplay:10.37,2013-04-16 17:49:00,
2013-04-16 13:55:00,79.3,59.0,30.26,ESE,113,3.5,0.0,50,0.00,CLR,,0.00,WeatherDisplay:10.37,2013-04-16 17:55:00,
2013-04-16 14:00:00,78.4,58.8,30.26,ESE,113,0.0,0.0,51,0.00,CLR,,0.00,WeatherDisplay:10.37,2013-04-16 18:00:00,
2013-04-16 14:05:00,78.9,58.7,30.26,SW,222,0.0,0.0,50,0.00,CLR,,0.00,WeatherDisplay:10.37,2013-04-16 18:05:00,
2013-04-16 14:10:00,79.7,57.7,30.26,SW,222,0.0,0.0,47,0.00,CLR,,0.00,WeatherDisplay:10.37,2013-04-16 18:10:00,
2013-04-16 14:15:00,79.3,57.9,30.26,SW,222,0.0,0.0,48,0.00,CLR,,0.00,WeatherDisplay:10.37,2013-04-16 18:15:00,
2013-04-16 14:20:00,79.4,58.0,30.25,SSE,162,2.3,2.3,48,0.00,CLR,,0.00,WeatherDisplay:10.37,2013-04-16 18:20:00,
2013-04-16 14:25:00,79.4,57.4,30.25,SW,216,0.0,0.0,47,0.00,CLR,,0.00,WeatherDisplay:10.37,2013-04-16 18:25:00,
2013-04-16 14:30:00,80.0,59.1,30.25,WSW,254,0.0,0.0,49,0.00,CLR,,0.00,WeatherDisplay:10.37,2013-04-16 18:30:00,
2013-04-16 14:35:00,79.9,57.9,30.24,WSW,254,0.0,0.0,47,0.00,CLR,,0.00,WeatherDisplay:10.37,2013-04-16 18:35:00,
2013-04-16 14:40:00,80.0,58.5,30.24,WSW,254,0.0,0.0,48,0.00,CLR,,0.00,WeatherDisplay:10.37,2013-04-16 18:40:00,
2013-04-16 14:45:00,80.4,58.3,30.24,WSW,254,0.0,0.0,47,0.00,CLR,,0.00,WeatherDisplay:10.37,2013-04-16 18:45:00,
2013-04-16 14:50:00,80.3,57.6,30.24,WSW,254,0.0,0.0,46,0.00,CLR,,0.00,WeatherDisplay:10.37,2013-04-16 18:50:00,
2013-04-16 14:55:00,80.2,58.1,30.23,WSW,254,0.0,0.0,47,0.00,CLR,,0.00,WeatherDisplay:10.37,2013-04-16 18:55:00,
2013-04-16 15:00:00,80.0,58.0,30.23,WSW,247,0.0,0.0,47,0.00,CLR,,0.00,WeatherDisplay:10.37,2013-04-16 19:00:00,
2013-04-16 15:05:00,79.7,58.3,30.23,WSW,247,0.0,0.0,48,0.00,CLR,,0.00,WeatherDisplay:10.37,2013-04-16 19:05:00,
2013-04-16 15:10:00,79.3,58.5,30.23,SSW,192,3.5,3.5,49,0.00,CLR,,0.00,WeatherDisplay:10.37,2013-04-16 19:10:00,
2013-04-16 15:15:00,79.1,57.7,30.23,ESE,110,0.0,0.0,48,0.00,CLR,,0.00,WeatherDisplay:10.37,2013-04-16 19:15:00,
2013-04-16 15:20:00,79.4,58.0,30.22,ESE,110,0.0,0.0,48,0.00,CLR,,0.00,WeatherDisplay:10.37,2013-04-16 19:20:00,
2013-04-16 15:25:00,79.7,57.1,30.22,NE,34,1.2,0.0,46,0.00,CLR,,0.00,WeatherDisplay:10.37,2013-04-16 19:25:00,
2013-04-16 15:30:00,80.1,58.0,30.22,NE,34,1.2,0.0,47,0.00,CLR,,0.00,WeatherDisplay:10.37,2013-04-16 19:30:00,
2013-04-16 15:35:00,80.5,58.4,30.22,East,92,1.2,1.2,47,0.00,CLR,,0.00,WeatherDisplay:10.37,2013-04-16 19:35:00,
2013-04-16 15:40:00,81.6,59.4,30.22,SW,232,4.6,4.6,47,0.00,CLR,,0.00,WeatherDisplay:10.37,2013-04-16 19:40:00,
2013-04-16 15:45:00,82.6,59.1,30.22,SW,215,0.0,0.0,45,0.00,CLR,,0.00,WeatherDisplay:10.37,2013-04-16 19:45:00,
2013-04-16 15:50:00,83.3,59.1,30.22,SSW,205,3.8,3.8,44,0.00,CLR,,0.00,WeatherDisplay:10.37,2013-04-16 19:50:00,
2013-04-16 15:55:00,83.5,59.3,30.22,ESE,104,0.0,0.0,44,0.00,CLR,,0.00,WeatherDisplay:10.37,2013-04-16 19:55:00,
2013-04-16 16:00:00,83.4,58.6,30.22,East,92,1.2,1.2,43,0.00,CLR,,0.00,WeatherDisplay:10.37,2013-04-16 20:00:00,
2013-04-16 16:05:00,82.8,59.3,30.21,ESE,121,2.0,2.0,45,0.00,CLR,,0.00,WeatherDisplay:10.37,2013-04-16 20:05:00,
2013-04-16 16:10:00,82.2,58.1,30.21,SE,126,1.2,0.0,44,0.00,CLR,,0.00,WeatherDisplay:10.37,2013-04-16 20:10:00,
2013-04-16 16:15:00,81.0,57.7,30.21,NNE,32,0.0,0.0,45,0.00,CLR,,0.00,WeatherDisplay:10.37,2013-04-16 20:15:00,
2013-04-16 16:20:00,80.2,57.5,30.21,NNE,32,0.0,0.0,46,0.00,CLR,,0.00,WeatherDisplay:10.37,2013-04-16 20:20:00,
2013-04-16 16:25:00,80.4,57.7,30.21,East,83,1.2,0.0,46,0.00,CLR,,0.00,WeatherDisplay:10.37,2013-04-16 20:25:00,
2013-04-16 16:30:00,81.1,57.7,30.21,East,83,0.0,0.0,45,0.00,CLR,,0.00,WeatherDisplay:10.37,2013-04-16 20:30:00,
2013-04-16 16:35:00,80.6,57.3,30.20,ESE,116,0.9,0.9,45,0.00,CLR,,0.00,WeatherDisplay:10.37,2013-04-16 20:35:00,
2013-04-16 16:40:00,80.2,57.5,30.20,ESE,116,0.0,0.0,46,0.00,CLR,,0.00,WeatherDisplay:10.37,2013-04-16 20:40:00,
2013-04-16 16:45:00,79.8,57.8,30.20,ESE,116,0.0,0.0,47,0.00,CLR,,0.00,WeatherDisplay:10.37,2013-04-16 20:45:00,
2013-04-16 16:52:00,79.8,57.8,30.20,ESE,116,0.0,0.0,47,0.00,CLR,,0.00,WeatherDisplay:10.37,2013-04-16 20:52:00,
2013-04-16 16:57:00,80.4,57.1,30.20,ESE,103,0.0,0.0,45,0.00,CLR,,0.00,WeatherDisplay:10.37,2013-04-16 20:57:00,
2013-04-16 17:02:00,80.6,57.9,30.20,ESE,103,0.0,0.0,46,0.00,CLR,,0.00,WeatherDisplay:10.37,2013-04-16 21:02:00,
2013-04-16 17:07:00,80.7,57.4,30.19,East,92,3.5,3.5,45,0.00,CLR,,0.00,WeatherDisplay:10.37,2013-04-16 21:07:00,
2013-04-16 17:12:00,80.6,57.9,30.19,SE,134,5.8,5.8,46,0.00,CLR,,0.00,WeatherDisplay:10.37,2013-04-16 21:12:00,
2013-04-16 17:17:00,80.5,57.8,30.19,ENE,59,0.0,0.0,46,0.00,CLR,,0.00,WeatherDisplay:10.37,2013-04-16 21:17:00,
2013-04-16 17:22:00,81.4,56.8,30.19,ESE,120,0.0,0.0,43,0.00,CLR,,0.00,WeatherDisplay:10.37,2013-04-16 21:22:00,
2013-04-16 17:27:00,82.0,57.3,30.19,ESE,120,0.0,0.0,43,0.00,CLR,,0.00,WeatherDisplay:10.37,2013-04-16 21:27:00,
2013-04-16 17:32:00,81.3,56.7,30.19,NE,41,0.0,0.0,43,0.00,CLR,,0.00,WeatherDisplay:10.37,2013-04-16 21:32:00,
2013-04-16 17:37:00,81.5,56.8,30.19,NNE,16,0.0,0.0,43,0.00,CLR,,0.00,WeatherDisplay:10.37,2013-04-16 21:37:00,
2013-04-16 17:42:00,81.9,56.6,30.19,NNE,30,4.6,4.6,42,0.00,CLR,,0.00,WeatherDisplay:10.37,2013-04-16 21:42:00,
2013-04-16 17:47:00,81.9,58.5,30.19,NNE,23,0.0,0.0,45,0.00,CLR,,0.00,WeatherDisplay:10.37,2013-04-16 21:47:00,
2013-04-16 17:52:00,81.7,57.7,30.19,East,100,1.2,1.2,44,0.00,CLR,,0.00,WeatherDisplay:10.37,2013-04-16 21:52:00,
2013-04-16 17:57:00,82.2,57.5,30.19,East,100,0.0,0.0,43,0.00,CLR,,0.00,WeatherDisplay:10.37,2013-04-16 21:57:00,
2013-04-16 18:02:00,82.3,56.9,30.19,East,88,3.5,3.5,42,0.00,CLR,,0.00,WeatherDisplay:10.37,2013-04-16 22:02:00,
2013-04-16 18:07:00,82.2,56.8,30.20,East,88,0.0,0.0,42,0.00,CLR,,0.00,WeatherDisplay:10.37,2013-04-16 22:07:00,
2013-04-16 18:12:00,81.5,57.5,30.19,East,88,0.0,0.0,44,0.00,CLR,,0.00,WeatherDisplay:10.37,2013-04-16 22:12:00,
2013-04-16 18:17:00,81.2,57.2,30.19,NE,49,0.0,0.0,44,0.00,CLR,,0.00,WeatherDisplay:10.37,2013-04-16 22:17:00,
2013-04-16 18:22:00,82.0,57.3,30.19,NE,49,0.0,0.0,43,0.00,CLR,,0.00,WeatherDisplay:10.37,2013-04-16 22:22:00,
2013-04-16 18:27:00,82.5,57.1,30.20,ENE,59,1.2,0.0,42,0.00,CLR,,0.00,WeatherDisplay:10.37,2013-04-16 22:27:00,
2013-04-16 18:32:00,82.5,57.1,30.20,ENE,59,0.0,0.0,42,0.00,CLR,,0.00,WeatherDisplay:10.37,2013-04-16 22:32:00,
2013-04-16 18:37:00,81.7,57.0,30.19,ENE,59,0.0,0.0,43,0.00,CLR,,0.00,WeatherDisplay:10.37,2013-04-16 22:37:00,
2013-04-16 18:42:00,81.4,57.4,30.19,ENE,66,0.0,0.0,44,0.00,CLR,,0.00,WeatherDisplay:10.37,2013-04-16 22:42:00,
2013-04-16 18:47:00,81.7,57.0,30.20,ENE,66,0.0,0.0,43,0.00,CLR,,0.00,WeatherDisplay:10.37,2013-04-16 22:47:00,
2013-04-16 18:52:00,81.4,56.8,30.20,ENE,66,0.0,0.0,43,0.00,CLR,,0.00,WeatherDisplay:10.37,2013-04-16 22:52:00,
2013-04-16 18:57:00,81.4,57.4,30.20,ENE,66,0.0,0.0,44,0.00,CLR,,0.00,WeatherDisplay:10.37,2013-04-16 22:57:00,
2013-04-16 19:02:00,80.5,57.2,30.20,ENE,66,0.0,0.0,45,0.00,CLR,,0.00,WeatherDisplay:10.37,2013-04-16 23:02:00,
2013-04-16 19:07:00,80.1,57.5,30.20,ENE,66,0.0,0.0,46,0.00,CLR,,0.00,WeatherDisplay:10.37,2013-04-16 23:07:00,
2013-04-16 19:12:00,80.2,58.1,30.20,ENE,66,0.0,0.0,47,0.00,CLR,,0.00,WeatherDisplay:10.37,2013-04-16 23:12:00,
2013-04-16 19:17:00,80.3,58.2,30.20,ENE,66,0.0,0.0,47,0.00,CLR,,0.00,WeatherDisplay:10.37,2013-04-16 23:17:00,
2013-04-16 19:22:00,80.1,58.0,30.20,ENE,66,0.0,0.0,47,0.00,CLR,,0.00,WeatherDisplay:10.37,2013-04-16 23:22:00,
2013-04-16 19:27:00,79.2,57.8,30.20,ENE,66,0.0,0.0,48,0.00,CLR,,0.00,WeatherDisplay:10.37,2013-04-16 23:27:00,
2013-04-16 19:32:00,78.3,58.1,30.20,ENE,66,0.0,0.0,50,0.00,CLR,,0.00,WeatherDisplay:10.37,2013-04-16 23:32:00,
2013-04-16 19:37:00,77.5,57.9,30.20,ENE,66,0.0,0.0,51,0.00,CLR,,0.00,WeatherDisplay:10.37,2013-04-16 23:37:00,
2013-04-16 19:42:00,77.4,57.9,30.21,ENE,66,0.0,0.0,51,0.00,CLR,,0.00,WeatherDisplay:10.37,2013-04-16 23:42:00,
2013-04-16 19:47:00,77.3,58.3,30.21,ENE,66,0.0,0.0,52,0.00,CLR,,0.00,WeatherDisplay:10.37,2013-04-16 23:47:00,
2013-04-16 19:52:00,76.7,58.8,30.21,ENE,66,0.0,0.0,54,0.00,CLR,,0.00,WeatherDisplay:10.37,2013-04-16 23:52:00,
2013-04-16 19:57:00,76.1,58.8,30.21,ENE,66,0.0,0.0,55,0.00,CLR,,0.00,WeatherDisplay:10.37,2013-04-16 23:57:00,
2013-04-16 20:02:00,75.5,58.7,30.21,ENE,66,0.0,0.0,56,0.00,CLR,,0.00,WeatherDisplay:10.37,2013-04-17 00:02:00,
2013-04-16 20:07:00,75.3,59.0,30.21,ENE,66,0.0,0.0,57,0.00,CLR,,0.00,WeatherDisplay:10.37,2013-04-17 00:07:00,
2013-04-16 20:12:00,74.8,59.5,30.21,ENE,66,0.0,0.0,59,0.00,CLR,,0.00,WeatherDisplay:10.37,2013-04-17 00:12:00,
2013-04-16 20:17:00,74.1,59.3,30.21,ENE,66,0.0,0.0,60,0.00,CLR,,0.00,WeatherDisplay:10.37,2013-04-17 00:17:00,
2013-04-16 20:22:00,73.6,59.8,30.21,ENE,66,0.0,0.0,62,0.00,CLR,,0.00,WeatherDisplay:10.37,2013-04-17 00:22:00,
2013-04-16 20:27:00,73.3,59.9,30.21,ENE,66,0.0,0.0,63,0.00,CLR,,0.00,WeatherDisplay:10.37,2013-04-17 00:27:00,
2013-04-16 20:32:00,73.1,60.2,30.21,ENE,66,0.0,0.0,64,0.00,CLR,,0.00,WeatherDisplay:10.37,2013-04-17 00:32:00,
2013-04-16 20:37:00,72.7,60.7,30.21,ENE,66,0.0,0.0,66,0.00,CLR,,0.00,WeatherDisplay:10.37,2013-04-17 00:37:00,
2013-04-16 20:42:00,72.2,60.6,30.21,ENE,66,0.0,0.0,67,0.00,CLR,,0.00,WeatherDisplay:10.37,2013-04-17 00:42:00,
2013-04-16 20:47:00,71.7,61.0,30.21,ENE,66,0.0,0.0,69,0.00,CLR,,0.00,WeatherDisplay:10.37,2013-04-17 00:47:00,
2013-04-16 20:52:00,71.4,62.3,30.21,ENE,66,0.0,0.0,73,0.00,CLR,,0.00,WeatherDisplay:10.37,2013-04-17 00:52:00,
2013-04-16 20:57:00,71.7,63.0,30.21,ENE,66,0.0,0.0,74,0.00,CLR,,0.00,WeatherDisplay:10.37,2013-04-17 00:57:00,
2013-04-16 21:02:00,71.5,61.6,30.22,ENE,66,0.0,0.0,71,0.00,CLR,,0.00,WeatherDisplay:10.37,2013-04-17 01:02:00,
2013-04-16 21:07:00,71.0,61.9,30.22,ENE,66,0.0,0.0,73,0.00,CLR,,0.00,WeatherDisplay:10.37,2013-04-17 01:07:00,
2013-04-16 21:12:00,70.5,62.6,30.22,ENE,66,0.0,0.0,76,0.00,CLR,,0.00,WeatherDisplay:10.37,2013-04-17 01:12:00,
2013-04-16 21:17:00,70.0,62.5,30.22,ENE,66,0.0,0.0,77,0.00,CLR,,0.00,WeatherDisplay:10.37,2013-04-17 01:17:00,
2013-04-16 21:22:00,69.7,62.5,30.22,ENE,66,0.0,0.0,78,0.00,CLR,,0.00,WeatherDisplay:10.37,2013-04-17 01:22:00,
2013-04-16 21:27:00,69.9,62.0,30.23,ENE,66,0.0,0.0,76,0.00,CLR,,0.00,WeatherDisplay:10.37,2013-04-17 01:27:00,
2013-04-16 21:33:00,69.6,62.4,30.23,ENE,66,0.0,0.0,78,0.00,CLR,,0.00,WeatherDisplay:10.37,2013-04-17 01:33:00,
2013-04-16 21:38:00,69.7,64.3,30.22,ENE,66,0.0,0.0,83,0.00,CLR,,0.00,WeatherDisplay:10.37,2013-04-17 01:38:00,
2013-04-16 21:43:00,70.1,65.4,30.23,ENE,66,0.0,0.0,85,0.00,CLR,,0.00,WeatherDisplay:10.37,2013-04-17 01:43:00,
2013-04-16 21:48:00,70.3,64.5,30.23,ENE,66,0.0,0.0,82,0.00,CLR,,0.00,WeatherDisplay:10.37,2013-04-17 01:48:00,
2013-04-16 21:53:00,70.6,64.8,30.23,ENE,66,0.0,0.0,82,0.00,CLR,,0.00,WeatherDisplay:10.37,2013-04-17 01:53:00,
2013-04-16 21:58:00,70.8,66.4,30.23,ENE,66,0.0,0.0,86,0.00,CLR,,0.00,WeatherDisplay:10.37,2013-04-17 01:58:00,
2013-04-16 22:03:00,70.6,64.1,30.23,ENE,66,0.0,0.0,80,0.00,CLR,,0.00,WeatherDisplay:10.37,2013-04-17 02:03:00,
2013-04-16 22:08:00,70.2,64.1,30.24,ENE,66,0.0,0.0,81,0.00,CLR,,0.00,WeatherDisplay:10.37,2013-04-17 02:08:00,
2013-04-16 22:13:00,70.0,63.2,30.24,ENE,66,0.0,0.0,79,0.00,CLR,,0.00,WeatherDisplay:10.37,2013-04-17 02:13:00,
2013-04-16 22:18:00,69.3,63.2,30.24,ENE,66,0.0,0.0,81,0.00,CLR,,0.00,WeatherDisplay:10.37,2013-04-17 02:18:00,
2013-04-16 22:23:00,68.7,63.0,30.24,ENE,66,0.0,0.0,82,0.00,CLR,,0.00,WeatherDisplay:10.37,2013-04-17 02:23:00,
2013-04-16 22:28:00,68.4,63.0,30.24,ENE,66,0.0,0.0,83,0.00,CLR,,0.00,WeatherDisplay:10.37,2013-04-17 02:28:00,
2013-04-16 22:33:00,68.2,63.2,30.25,ENE,66,0.0,0.0,84,0.00,CLR,,0.00,WeatherDisplay:10.37,2013-04-17 02:33:00,
2013-04-16 22:38:00,67.8,63.1,30.25,ENE,66,0.0,0.0,85,0.00,CLR,,0.00,WeatherDisplay:10.37,2013-04-17 02:38:00,
2013-04-16 22:43:00,67.2,63.5,30.24,ENE,66,0.0,0.0,88,0.00,CLR,,0.00,WeatherDisplay:10.37,2013-04-17 02:43:00,
2013-04-16 22:48:00,67.4,63.4,30.24,ENE,66,0.0,0.0,87,0.00,CLR,,0.00,WeatherDisplay:10.37,2013-04-17 02:48:00,
2013-04-16 22:53:00,67.2,63.2,30.24,ENE,66,0.0,0.0,87,0.00,CLR,,0.00,WeatherDisplay:10.37,2013-04-17 02:53:00,
2013-04-16 22:58:00,66.8,63.5,30.24,ENE,66,0.0,0.0,89,0.00,CLR,,0.00,WeatherDisplay:10.37,2013-04-17 02:58:00,
2013-04-16 23:03:00,66.4,63.4,30.24,ENE,66,0.0,0.0,90,0.00,CLR,,0.00,WeatherDisplay:10.37,2013-04-17 03:03:00,
2013-04-16 23:08:00,66.1,63.7,30.24,ENE,66,0.0,0.0,92,0.00,CLR,,0.00,WeatherDisplay:10.37,2013-04-17 03:08:00,
2013-04-16 23:13:00,66.2,63.8,30.24,ENE,66,0.0,0.0,92,0.00,CLR,,0.00,WeatherDisplay:10.37,2013-04-17 03:13:00,
2013-04-16 23:18:00,66.0,63.6,30.24,ENE,66,0.0,0.0,92,0.00,CLR,,0.00,WeatherDisplay:10.37,2013-04-17 03:18:00,
2013-04-16 23:23:00,65.8,63.7,30.24,ENE,66,0.0,0.0,93,0.00,CLR,,0.00,WeatherDisplay:10.37,2013-04-17 03:23:00,
2013-04-16 23:28:00,65.3,63.8,30.24,ENE,66,0.0,0.0,95,0.00,CLR,,0.00,WeatherDisplay:10.37,2013-04-17 03:28:00,
2013-04-16 23:33:00,65.7,63.9,30.24,ENE,66,0.0,0.0,94,0.00,CLR,,0.00,WeatherDisplay:10.37,2013-04-17 03:33:00,
2013-04-16 23:38:00,65.7,63.9,30.24,ENE,66,0.0,0.0,94,0.00,CLR,,0.00,WeatherDisplay:10.37,2013-04-17 03:38:00,
2013-04-16 23:43:00,65.6,64.7,30.23,ENE,66,0.0,0.0,97,0.00,CLR,,0.00,WeatherDisplay:10.37,2013-04-17 03:43:00,
2013-04-16 23:48:00,65.9,65.0,30.23,ENE,66,0.0,0.0,97,0.00,CLR,,0.00,WeatherDisplay:10.37,2013-04-17 03:48:00,
2013-04-16 23:53:00,66.2,64.4,30.23,ENE,66,0.0,0.0,94,0.00,CLR,,0.00,WeatherDisplay:10.37,2013-04-17 03:53:00,
2013-04-16 23:58:00,66.0,63.9,30.23,ENE,66,0.0,0.0,93,0.00,CLR,,0.00,WeatherDisplay:10.37,2013-04-17 03:58:00,